sensor_id;sensor_type;location;lat;lon;timestamp;P1;durP1;ratioP1;P2;durP2;ratioP2
17741;SDS011;8993;51.822;-2.268;2023-08-07T00:03:47;5.57;;;1.61;;
17741;SDS011;8993;51.822;-2.268;2023-08-07T00:08:51;2.76;;;1.46;;
17741;SDS011;8993;51.822;-2.268;2023-08-07T00:13:57;6.24;;;2.36;;
17741;SDS011;8993;51.822;-2.268;2023-08-07T00:19:00;4.41;;;1.60;;
17741;SDS011;8993;51.822;-2.268;2023-08-07T00:24:04;3.03;;;1.54;;
17741;SDS011;8993;51.822;-2.268;2023-08-07T00:29:08;3.57;;;1.33;;
17741;SDS011;8993;51.822;-2.268;2023-08-07T00:34:13;4.40;;;1.51;;
17741;SDS011;8993;51.822;-2.268;2023-08-07T00:39:17;3.51;;;1.49;;
17741;SDS011;8993;51.822;-2.268;2023-08-07T00:44:21;5.86;;;2.01;;
17741;SDS011;8993;51.822;-2.268;2023-08-07T00:49:25;5.98;;;2.07;;
17741;SDS011;8993;51.822;-2.268;2023-08-07T00:54:30;5.35;;;1.74;;
17741;SDS011;8993;51.822;-2.268;2023-08-07T00:59:34;4.25;;;1.90;;
17741;SDS011;8993;51.822;-2.268;2023-08-07T01:04:39;4.49;;;1.48;;
17741;SDS011;8993;51.822;-2.268;2023-08-07T01:09:43;3.73;;;1.25;;
17741;SDS011;8993;51.822;-2.268;2023-08-07T01:14:49;5.89;;;2.56;;
17741;SDS011;8993;51.822;-2.268;2023-08-07T01:19:52;6.20;;;1.92;;
17741;SDS011;8993;51.822;-2.268;2023-08-07T01:24:56;5.92;;;2.05;;
17741;SDS011;8993;51.822;-2.268;2023-08-07T01:30:03;5.27;;;2.17;;
17741;SDS011;8993;51.822;-2.268;2023-08-07T01:35:05;4.39;;;1.98;;
17741;SDS011;8993;51.822;-2.268;2023-08-07T01:40:10;7.85;;;2.57;;
17741;SDS011;8993;51.822;-2.268;2023-08-07T01:45:14;2.93;;;1.38;;
17741;SDS011;8993;51.822;-2.268;2023-08-07T01:50:18;6.67;;;2.20;;
17741;SDS011;8993;51.822;-2.268;2023-08-07T01:55:22;6.10;;;2.30;;
17741;SDS011;8993;51.822;-2.268;2023-08-07T02:00:27;5.73;;;2.65;;
17741;SDS011;8993;51.822;-2.268;2023-08-07T02:05:32;4.07;;;1.91;;
17741;SDS011;8993;51.822;-2.268;2023-08-07T02:10:36;4.84;;;1.77;;
17741;SDS011;8993;51.822;-2.268;2023-08-07T02:15:41;7.02;;;2.15;;
17741;SDS011;8993;51.822;-2.268;2023-08-07T02:20:45;4.30;;;2.01;;
17741;SDS011;8993;51.822;-2.268;2023-08-07T02:25:51;7.31;;;2.57;;
17741;SDS011;8993;51.822;-2.268;2023-08-07T02:30:54;6.73;;;2.35;;
17741;SDS011;8993;51.822;-2.268;2023-08-07T02:35:58;4.20;;;1.73;;
17741;SDS011;8993;51.822;-2.268;2023-08-07T02:41:02;4.93;;;1.47;;
17741;SDS011;8993;51.822;-2.268;2023-08-07T02:46:07;2.91;;;1.74;;
17741;SDS011;8993;51.822;-2.268;2023-08-07T02:51:11;6.63;;;2.50;;
17741;SDS011;8993;51.822;-2.268;2023-08-07T02:56:15;3.52;;;1.51;;
17741;SDS011;8993;51.822;-2.268;2023-08-07T03:01:21;4.28;;;1.66;;
17741;SDS011;8993;51.822;-2.268;2023-08-07T03:06:25;3.70;;;1.57;;
17741;SDS011;8993;51.822;-2.268;2023-08-07T03:11:29;3.44;;;1.44;;
17741;SDS011;8993;51.822;-2.268;2023-08-07T03:16:34;4.16;;;1.78;;
17741;SDS011;8993;51.822;-2.268;2023-08-07T03:21:38;3.25;;;1.54;;
17741;SDS011;8993;51.822;-2.268;2023-08-07T03:26:42;4.13;;;1.63;;
17741;SDS011;8993;51.822;-2.268;2023-08-07T03:31:47;4.10;;;1.48;;
17741;SDS011;8993;51.822;-2.268;2023-08-07T03:36:51;4.34;;;1.92;;
17741;SDS011;8993;51.822;-2.268;2023-08-07T03:41:55;7.15;;;2.40;;
17741;SDS011;8993;51.822;-2.268;2023-08-07T03:47:01;7.05;;;2.75;;
17741;SDS011;8993;51.822;-2.268;2023-08-07T03:52:05;6.39;;;2.18;;
17741;SDS011;8993;51.822;-2.268;2023-08-07T03:57:10;3.39;;;1.72;;
17741;SDS011;8993;51.822;-2.268;2023-08-07T04:02:22;4.93;;;1.75;;
17741;SDS011;8993;51.822;-2.268;2023-08-07T04:07:16;3.17;;;1.91;;
17741;SDS011;8993;51.822;-2.268;2023-08-07T04:12:20;3.35;;;1.93;;
17741;SDS011;8993;51.822;-2.268;2023-08-07T04:22:31;3.53;;;1.70;;
17741;SDS011;8993;51.822;-2.268;2023-08-07T04:28:14;4.13;;;1.81;;
17741;SDS011;8993;51.822;-2.268;2023-08-07T04:32:39;4.07;;;1.81;;
17741;SDS011;8993;51.822;-2.268;2023-08-07T04:37:43;4.77;;;2.03;;
17741;SDS011;8993;51.822;-2.268;2023-08-07T04:42:48;3.91;;;1.81;;
17741;SDS011;8993;51.822;-2.268;2023-08-07T04:47:52;3.91;;;1.93;;
17741;SDS011;8993;51.822;-2.268;2023-08-07T04:52:56;4.23;;;2.23;;
17741;SDS011;8993;51.822;-2.268;2023-08-07T04:58:00;7.12;;;2.56;;
17741;SDS011;8993;51.822;-2.268;2023-08-07T05:03:05;5.40;;;2.26;;
17741;SDS011;8993;51.822;-2.268;2023-08-07T05:08:09;5.25;;;2.21;;
17741;SDS011;8993;51.822;-2.268;2023-08-07T05:13:13;3.75;;;1.78;;
17741;SDS011;8993;51.822;-2.268;2023-08-07T05:18:18;3.41;;;1.75;;
17741;SDS011;8993;51.822;-2.268;2023-08-07T05:23:22;4.46;;;2.01;;
17741;SDS011;8993;51.822;-2.268;2023-08-07T05:28:26;4.58;;;2.12;;
17741;SDS011;8993;51.822;-2.268;2023-08-07T05:33:31;7.58;;;2.41;;
17741;SDS011;8993;51.822;-2.268;2023-08-07T05:38:35;5.52;;;2.57;;
17741;SDS011;8993;51.822;-2.268;2023-08-07T05:43:39;3.92;;;2.04;;
17741;SDS011;8993;51.822;-2.268;2023-08-07T05:48:44;7.06;;;3.08;;
17741;SDS011;8993;51.822;-2.268;2023-08-07T05:53:48;5.49;;;2.98;;
17741;SDS011;8993;51.822;-2.268;2023-08-07T05:58:52;10.19;;;4.78;;
17741;SDS011;8993;51.822;-2.268;2023-08-07T06:03:57;7.52;;;3.24;;
17741;SDS011;8993;51.822;-2.268;2023-08-07T06:09:01;7.10;;;3.29;;
17741;SDS011;8993;51.822;-2.268;2023-08-07T06:14:06;8.99;;;3.61;;
17741;SDS011;8993;51.822;-2.268;2023-08-07T06:19:10;11.14;;;5.24;;
17741;SDS011;8993;51.822;-2.268;2023-08-07T06:24:15;6.26;;;3.17;;
17741;SDS011;8993;51.822;-2.268;2023-08-07T06:29:20;8.08;;;3.84;;
17741;SDS011;8993;51.822;-2.268;2023-08-07T06:34:25;5.79;;;3.26;;
17741;SDS011;8993;51.822;-2.268;2023-08-07T06:39:29;8.04;;;3.33;;
17741;SDS011;8993;51.822;-2.268;2023-08-07T06:44:34;11.18;;;3.84;;
17741;SDS011;8993;51.822;-2.268;2023-08-07T06:49:38;8.36;;;3.19;;
17741;SDS011;8993;51.822;-2.268;2023-08-07T06:54:42;8.16;;;2.68;;
17741;SDS011;8993;51.822;-2.268;2023-08-07T06:59:47;7.70;;;2.27;;
17741;SDS011;8993;51.822;-2.268;2023-08-07T07:04:51;7.65;;;2.20;;
17741;SDS011;8993;51.822;-2.268;2023-08-07T07:09:55;5.73;;;2.16;;
17741;SDS011;8993;51.822;-2.268;2023-08-07T07:15:00;5.16;;;1.44;;
17741;SDS011;8993;51.822;-2.268;2023-08-07T07:20:05;5.89;;;1.37;;
17741;SDS011;8993;51.822;-2.268;2023-08-07T07:25:10;4.32;;;1.23;;
17741;SDS011;8993;51.822;-2.268;2023-08-07T07:30:13;3.65;;;0.82;;
17741;SDS011;8993;51.822;-2.268;2023-08-07T07:35:18;4.49;;;0.83;;
17741;SDS011;8993;51.822;-2.268;2023-08-07T07:40:22;4.05;;;0.87;;
17741;SDS011;8993;51.822;-2.268;2023-08-07T07:45:26;2.98;;;0.78;;
17741;SDS011;8993;51.822;-2.268;2023-08-07T07:50:30;3.53;;;0.84;;
17741;SDS011;8993;51.822;-2.268;2023-08-07T07:55:35;3.00;;;0.76;;
17741;SDS011;8993;51.822;-2.268;2023-08-07T08:00:39;3.70;;;0.84;;
17741;SDS011;8993;51.822;-2.268;2023-08-07T08:05:43;5.19;;;0.86;;
17741;SDS011;8993;51.822;-2.268;2023-08-07T08:10:48;3.49;;;0.77;;
17741;SDS011;8993;51.822;-2.268;2023-08-07T08:15:52;2.52;;;0.61;;
17741;SDS011;8993;51.822;-2.268;2023-08-07T08:20:56;3.29;;;0.69;;
17741;SDS011;8993;51.822;-2.268;2023-08-07T08:26:00;3.25;;;0.74;;
17741;SDS011;8993;51.822;-2.268;2023-08-07T08:31:05;3.43;;;0.78;;
17741;SDS011;8993;51.822;-2.268;2023-08-07T08:36:09;3.57;;;0.78;;
17741;SDS011;8993;51.822;-2.268;2023-08-07T08:41:13;2.71;;;0.91;;
17741;SDS011;8993;51.822;-2.268;2023-08-07T08:46:18;3.22;;;0.72;;
17741;SDS011;8993;51.822;-2.268;2023-08-07T08:51:22;2.60;;;0.81;;
17741;SDS011;8993;51.822;-2.268;2023-08-07T08:56:26;4.14;;;0.75;;
17741;SDS011;8993;51.822;-2.268;2023-08-07T09:01:31;2.81;;;0.91;;
17741;SDS011;8993;51.822;-2.268;2023-08-07T09:06:35;5.54;;;1.17;;
17741;SDS011;8993;51.822;-2.268;2023-08-07T09:11:40;4.42;;;0.92;;
17741;SDS011;8993;51.822;-2.268;2023-08-07T09:16:44;3.72;;;0.88;;
17741;SDS011;8993;51.822;-2.268;2023-08-07T09:21:48;3.34;;;0.83;;
17741;SDS011;8993;51.822;-2.268;2023-08-07T09:26:53;4.64;;;0.91;;
17741;SDS011;8993;51.822;-2.268;2023-08-07T09:32:00;3.68;;;0.69;;
17741;SDS011;8993;51.822;-2.268;2023-08-07T09:37:02;3.13;;;0.71;;
17741;SDS011;8993;51.822;-2.268;2023-08-07T09:42:09;2.54;;;0.73;;
17741;SDS011;8993;51.822;-2.268;2023-08-07T09:47:11;3.90;;;0.83;;
17741;SDS011;8993;51.822;-2.268;2023-08-07T09:52:15;3.36;;;0.72;;
17741;SDS011;8993;51.822;-2.268;2023-08-07T09:57:19;2.91;;;0.69;;
17741;SDS011;8993;51.822;-2.268;2023-08-07T10:02:25;3.32;;;0.72;;
17741;SDS011;8993;51.822;-2.268;2023-08-07T10:07:29;2.80;;;0.65;;
17741;SDS011;8993;51.822;-2.268;2023-08-07T10:12:33;3.86;;;0.72;;
17741;SDS011;8993;51.822;-2.268;2023-08-07T10:17:38;3.18;;;0.68;;
17741;SDS011;8993;51.822;-2.268;2023-08-07T10:22:42;5.07;;;0.71;;
17741;SDS011;8993;51.822;-2.268;2023-08-07T10:27:46;3.73;;;0.75;;
17741;SDS011;8993;51.822;-2.268;2023-08-07T10:32:51;2.79;;;0.72;;
17741;SDS011;8993;51.822;-2.268;2023-08-07T10:37:57;3.31;;;0.77;;
17741;SDS011;8993;51.822;-2.268;2023-08-07T10:43:12;3.23;;;0.70;;
17741;SDS011;8993;51.822;-2.268;2023-08-07T10:48:05;3.64;;;0.68;;
17741;SDS011;8993;51.822;-2.268;2023-08-07T10:53:09;3.57;;;0.59;;
17741;SDS011;8993;51.822;-2.268;2023-08-07T10:58:21;3.60;;;0.63;;
17741;SDS011;8993;51.822;-2.268;2023-08-07T11:03:20;2.42;;;0.62;;
17741;SDS011;8993;51.822;-2.268;2023-08-07T11:08:23;2.24;;;0.62;;
17741;SDS011;8993;51.822;-2.268;2023-08-07T11:13:29;2.27;;;0.67;;
17741;SDS011;8993;51.822;-2.268;2023-08-07T11:18:32;3.79;;;0.82;;
17741;SDS011;8993;51.822;-2.268;2023-08-07T11:23:36;3.10;;;0.64;;
17741;SDS011;8993;51.822;-2.268;2023-08-07T11:28:40;2.26;;;0.68;;
17741;SDS011;8993;51.822;-2.268;2023-08-07T11:33:45;4.70;;;0.67;;
17741;SDS011;8993;51.822;-2.268;2023-08-07T11:38:51;2.51;;;0.74;;
17741;SDS011;8993;51.822;-2.268;2023-08-07T11:43:55;3.09;;;0.78;;
17741;SDS011;8993;51.822;-2.268;2023-08-07T11:49:00;4.08;;;0.79;;
17741;SDS011;8993;51.822;-2.268;2023-08-07T11:54:04;3.89;;;0.74;;
17741;SDS011;8993;51.822;-2.268;2023-08-07T11:59:09;3.12;;;0.91;;
17741;SDS011;8993;51.822;-2.268;2023-08-07T12:04:14;2.50;;;0.92;;
17741;SDS011;8993;51.822;-2.268;2023-08-07T12:09:18;3.99;;;1.10;;
17741;SDS011;8993;51.822;-2.268;2023-08-07T12:14:22;4.71;;;1.07;;
17741;SDS011;8993;51.822;-2.268;2023-08-07T12:19:35;3.86;;;0.98;;
17741;SDS011;8993;51.822;-2.268;2023-08-07T12:24:32;3.52;;;0.95;;
17741;SDS011;8993;51.822;-2.268;2023-08-07T12:29:38;5.23;;;1.06;;
17741;SDS011;8993;51.822;-2.268;2023-08-07T12:34:43;6.04;;;0.98;;
17741;SDS011;8993;51.822;-2.268;2023-08-07T12:39:47;4.29;;;1.09;;
17741;SDS011;8993;51.822;-2.268;2023-08-07T12:44:52;6.78;;;1.19;;
17741;SDS011;8993;51.822;-2.268;2023-08-07T12:49:56;5.75;;;1.27;;
17741;SDS011;8993;51.822;-2.268;2023-08-07T12:55:01;5.92;;;1.36;;
17741;SDS011;8993;51.822;-2.268;2023-08-07T13:00:06;7.72;;;1.22;;
17741;SDS011;8993;51.822;-2.268;2023-08-07T13:05:10;4.06;;;1.10;;
17741;SDS011;8993;51.822;-2.268;2023-08-07T13:10:16;6.13;;;1.18;;
17741;SDS011;8993;51.822;-2.268;2023-08-07T13:15:20;7.43;;;1.71;;
17741;SDS011;8993;51.822;-2.268;2023-08-07T13:20:23;5.74;;;1.33;;
17741;SDS011;8993;51.822;-2.268;2023-08-07T13:25:28;7.23;;;1.39;;
17741;SDS011;8993;51.822;-2.268;2023-08-07T13:30:34;6.28;;;1.33;;
17741;SDS011;8993;51.822;-2.268;2023-08-07T13:35:38;5.10;;;1.32;;
17741;SDS011;8993;51.822;-2.268;2023-08-07T13:40:44;5.92;;;1.38;;
17741;SDS011;8993;51.822;-2.268;2023-08-07T13:45:48;5.92;;;1.32;;
17741;SDS011;8993;51.822;-2.268;2023-08-07T13:50:52;5.98;;;1.37;;
17741;SDS011;8993;51.822;-2.268;2023-08-07T13:55:56;7.89;;;1.34;;
17741;SDS011;8993;51.822;-2.268;2023-08-07T14:01:01;5.72;;;1.43;;
17741;SDS011;8993;51.822;-2.268;2023-08-07T14:06:05;6.56;;;1.48;;
17741;SDS011;8993;51.822;-2.268;2023-08-07T14:11:10;7.70;;;1.58;;
17741;SDS011;8993;51.822;-2.268;2023-08-07T14:16:14;7.89;;;1.41;;
17741;SDS011;8993;51.822;-2.268;2023-08-07T14:21:19;8.12;;;1.37;;
17741;SDS011;8993;51.822;-2.268;2023-08-07T14:26:25;7.23;;;1.68;;
17741;SDS011;8993;51.822;-2.268;2023-08-07T14:31:28;5.55;;;1.52;;
17741;SDS011;8993;51.822;-2.268;2023-08-07T14:36:33;4.91;;;1.26;;
17741;SDS011;8993;51.822;-2.268;2023-08-07T14:41:38;5.17;;;1.10;;
17741;SDS011;8993;51.822;-2.268;2023-08-07T14:46:42;5.73;;;1.28;;
17741;SDS011;8993;51.822;-2.268;2023-08-07T14:51:47;6.02;;;1.24;;
17741;SDS011;8993;51.822;-2.268;2023-08-07T14:56:51;6.65;;;1.36;;
17741;SDS011;8993;51.822;-2.268;2023-08-07T15:01:56;6.24;;;1.52;;
17741;SDS011;8993;51.822;-2.268;2023-08-07T15:07:00;5.47;;;1.35;;
17741;SDS011;8993;51.822;-2.268;2023-08-07T15:12:05;5.66;;;1.55;;
17741;SDS011;8993;51.822;-2.268;2023-08-07T15:17:09;6.00;;;1.13;;
17741;SDS011;8993;51.822;-2.268;2023-08-07T15:22:13;4.76;;;1.14;;
17741;SDS011;8993;51.822;-2.268;2023-08-07T15:27:19;5.03;;;1.21;;
17741;SDS011;8993;51.822;-2.268;2023-08-07T15:32:23;5.24;;;1.16;;
17741;SDS011;8993;51.822;-2.268;2023-08-07T15:37:29;7.54;;;1.19;;
17741;SDS011;8993;51.822;-2.268;2023-08-07T15:42:34;4.82;;;1.26;;
17741;SDS011;8993;51.822;-2.268;2023-08-07T15:52:47;3.86;;;1.13;;
17741;SDS011;8993;51.822;-2.268;2023-08-07T15:57:55;5.48;;;1.34;;
17741;SDS011;8993;51.822;-2.268;2023-08-07T16:03:00;5.28;;;1.30;;
17741;SDS011;8993;51.822;-2.268;2023-08-07T16:08:05;5.86;;;1.13;;
17741;SDS011;8993;51.822;-2.268;2023-08-07T16:13:09;5.56;;;1.03;;
17741;SDS011;8993;51.822;-2.268;2023-08-07T16:18:13;5.44;;;1.06;;
17741;SDS011;8993;51.822;-2.268;2023-08-07T16:23:19;4.48;;;0.90;;
17741;SDS011;8993;51.822;-2.268;2023-08-07T16:28:24;4.09;;;0.85;;
17741;SDS011;8993;51.822;-2.268;2023-08-07T16:33:28;4.10;;;0.99;;
17741;SDS011;8993;51.822;-2.268;2023-08-07T16:38:32;4.47;;;1.08;;
17741;SDS011;8993;51.822;-2.268;2023-08-07T16:43:37;6.17;;;1.11;;
17741;SDS011;8993;51.822;-2.268;2023-08-07T16:48:42;5.78;;;1.21;;
17741;SDS011;8993;51.822;-2.268;2023-08-07T16:53:46;5.84;;;1.11;;
17741;SDS011;8993;51.822;-2.268;2023-08-07T16:58:50;6.08;;;1.05;;
17741;SDS011;8993;51.822;-2.268;2023-08-07T17:03:54;4.52;;;1.07;;
17741;SDS011;8993;51.822;-2.268;2023-08-07T17:08:58;4.90;;;1.05;;
17741;SDS011;8993;51.822;-2.268;2023-08-07T17:14:03;5.45;;;1.00;;
17741;SDS011;8993;51.822;-2.268;2023-08-07T17:19:07;6.74;;;1.12;;
17741;SDS011;8993;51.822;-2.268;2023-08-07T17:24:12;5.60;;;1.04;;
17741;SDS011;8993;51.822;-2.268;2023-08-07T17:29:17;4.46;;;1.03;;
17741;SDS011;8993;51.822;-2.268;2023-08-07T17:34:21;4.53;;;0.96;;
17741;SDS011;8993;51.822;-2.268;2023-08-07T17:39:25;5.21;;;1.00;;
17741;SDS011;8993;51.822;-2.268;2023-08-07T17:44:30;3.82;;;0.88;;
17741;SDS011;8993;51.822;-2.268;2023-08-07T17:49:35;3.35;;;0.91;;
17741;SDS011;8993;51.822;-2.268;2023-08-07T17:54:40;4.28;;;0.86;;
17741;SDS011;8993;51.822;-2.268;2023-08-07T17:59:44;4.88;;;0.96;;
17741;SDS011;8993;51.822;-2.268;2023-08-07T18:04:49;5.14;;;0.94;;
17741;SDS011;8993;51.822;-2.268;2023-08-07T18:09:53;3.29;;;0.90;;
17741;SDS011;8993;51.822;-2.268;2023-08-07T18:14:57;2.70;;;0.79;;
17741;SDS011;8993;51.822;-2.268;2023-08-07T18:20:02;5.29;;;0.85;;
17741;SDS011;8993;51.822;-2.268;2023-08-07T18:25:06;4.06;;;0.89;;
17741;SDS011;8993;51.822;-2.268;2023-08-07T18:30:11;4.35;;;0.87;;
17741;SDS011;8993;51.822;-2.268;2023-08-07T18:35:16;4.44;;;0.91;;
17741;SDS011;8993;51.822;-2.268;2023-08-07T18:40:21;3.58;;;0.91;;
17741;SDS011;8993;51.822;-2.268;2023-08-07T18:45:26;3.15;;;0.95;;
17741;SDS011;8993;51.822;-2.268;2023-08-07T18:50:30;4.51;;;1.06;;
17741;SDS011;8993;51.822;-2.268;2023-08-07T18:55:35;4.36;;;0.98;;
17741;SDS011;8993;51.822;-2.268;2023-08-07T19:00:39;3.90;;;0.93;;
17741;SDS011;8993;51.822;-2.268;2023-08-07T19:05:43;3.68;;;0.96;;
17741;SDS011;8993;51.822;-2.268;2023-08-07T19:10:47;4.15;;;0.90;;
17741;SDS011;8993;51.822;-2.268;2023-08-07T19:15:54;4.31;;;0.97;;
17741;SDS011;8993;51.822;-2.268;2023-08-07T19:20:58;4.62;;;0.93;;
17741;SDS011;8993;51.822;-2.268;2023-08-07T19:26:04;3.88;;;0.98;;
17741;SDS011;8993;51.822;-2.268;2023-08-07T19:31:10;4.67;;;1.00;;
17741;SDS011;8993;51.822;-2.268;2023-08-07T19:36:15;5.98;;;1.10;;
17741;SDS011;8993;51.822;-2.268;2023-08-07T19:41:20;4.74;;;0.92;;
17741;SDS011;8993;51.822;-2.268;2023-08-07T19:46:24;4.23;;;1.01;;
17741;SDS011;8993;51.822;-2.268;2023-08-07T19:51:29;4.56;;;1.12;;
17741;SDS011;8993;51.822;-2.268;2023-08-07T19:56:33;5.21;;;1.14;;
17741;SDS011;8993;51.822;-2.268;2023-08-07T20:01:38;4.76;;;1.20;;
17741;SDS011;8993;51.822;-2.268;2023-08-07T20:06:44;7.59;;;1.25;;
17741;SDS011;8993;51.822;-2.268;2023-08-07T20:11:49;3.93;;;1.15;;
17741;SDS011;8993;51.822;-2.268;2023-08-07T20:16:54;4.38;;;1.13;;
17741;SDS011;8993;51.822;-2.268;2023-08-07T20:21:59;5.47;;;1.34;;
17741;SDS011;8993;51.822;-2.268;2023-08-07T20:27:03;4.68;;;1.24;;
17741;SDS011;8993;51.822;-2.268;2023-08-07T20:32:08;5.87;;;1.27;;
17741;SDS011;8993;51.822;-2.268;2023-08-07T20:37:12;5.00;;;1.21;;
17741;SDS011;8993;51.822;-2.268;2023-08-07T20:42:17;6.33;;;1.40;;
17741;SDS011;8993;51.822;-2.268;2023-08-07T20:47:21;5.78;;;1.56;;
17741;SDS011;8993;51.822;-2.268;2023-08-07T20:52:26;6.21;;;1.64;;
17741;SDS011;8993;51.822;-2.268;2023-08-07T20:57:30;4.94;;;1.43;;
17741;SDS011;8993;51.822;-2.268;2023-08-07T21:02:35;6.48;;;1.56;;
17741;SDS011;8993;51.822;-2.268;2023-08-07T21:07:39;5.42;;;1.25;;
17741;SDS011;8993;51.822;-2.268;2023-08-07T21:12:44;6.14;;;1.49;;
17741;SDS011;8993;51.822;-2.268;2023-08-07T21:17:48;5.26;;;1.39;;
17741;SDS011;8993;51.822;-2.268;2023-08-07T21:22:52;6.27;;;1.31;;
17741;SDS011;8993;51.822;-2.268;2023-08-07T21:27:57;6.99;;;1.47;;
17741;SDS011;8993;51.822;-2.268;2023-08-07T21:33:01;5.99;;;1.47;;
17741;SDS011;8993;51.822;-2.268;2023-08-07T21:38:06;5.23;;;1.40;;
17741;SDS011;8993;51.822;-2.268;2023-08-07T21:43:10;6.92;;;1.57;;
17741;SDS011;8993;51.822;-2.268;2023-08-07T21:48:15;6.42;;;1.48;;
17741;SDS011;8993;51.822;-2.268;2023-08-07T21:53:19;3.31;;;1.28;;
17741;SDS011;8993;51.822;-2.268;2023-08-07T21:58:23;5.33;;;1.35;;
17741;SDS011;8993;51.822;-2.268;2023-08-07T22:03:28;5.48;;;1.41;;
17741;SDS011;8993;51.822;-2.268;2023-08-07T22:08:32;5.29;;;1.43;;
17741;SDS011;8993;51.822;-2.268;2023-08-07T22:13:37;5.79;;;1.52;;
17741;SDS011;8993;51.822;-2.268;2023-08-07T22:18:41;4.28;;;1.42;;
17741;SDS011;8993;51.822;-2.268;2023-08-07T22:23:46;5.82;;;1.41;;
17741;SDS011;8993;51.822;-2.268;2023-08-07T22:28:50;3.85;;;1.29;;
17741;SDS011;8993;51.822;-2.268;2023-08-07T22:33:55;5.01;;;1.46;;
17741;SDS011;8993;51.822;-2.268;2023-08-07T22:38:59;5.43;;;1.28;;
17741;SDS011;8993;51.822;-2.268;2023-08-07T22:44:04;3.60;;;1.20;;
17741;SDS011;8993;51.822;-2.268;2023-08-07T22:49:08;3.51;;;1.09;;
17741;SDS011;8993;51.822;-2.268;2023-08-07T22:54:12;3.97;;;1.08;;
17741;SDS011;8993;51.822;-2.268;2023-08-07T22:59:17;4.26;;;1.22;;
17741;SDS011;8993;51.822;-2.268;2023-08-07T23:04:21;3.32;;;1.02;;
17741;SDS011;8993;51.822;-2.268;2023-08-07T23:09:25;3.57;;;1.30;;
17741;SDS011;8993;51.822;-2.268;2023-08-07T23:14:30;4.19;;;1.46;;
17741;SDS011;8993;51.822;-2.268;2023-08-07T23:19:34;4.33;;;1.21;;
17741;SDS011;8993;51.822;-2.268;2023-08-07T23:24:38;3.83;;;1.05;;
17741;SDS011;8993;51.822;-2.268;2023-08-07T23:29:44;3.09;;;0.95;;
17741;SDS011;8993;51.822;-2.268;2023-08-07T23:34:47;2.56;;;0.82;;
17741;SDS011;8993;51.822;-2.268;2023-08-07T23:39:52;2.62;;;0.85;;
17741;SDS011;8993;51.822;-2.268;2023-08-07T23:44:56;3.88;;;0.91;;
17741;SDS011;8993;51.822;-2.268;2023-08-07T23:50:01;3.82;;;1.01;;
17741;SDS011;8993;51.822;-2.268;2023-08-07T23:55:06;2.04;;;0.74;;
